sensor_id;sensor_type;location;lat;lon;timestamp;pressure;altitude;pressure_sealevel;temperature;humidity
4836;BME280;66719;51.226;6.902;2023-05-22T00:01:58;100573.41;;;18.74;100.00
4836;BME280;66719;51.226;6.902;2023-05-22T00:04:25;100569.88;;;18.73;100.00
4836;BME280;66719;51.226;6.902;2023-05-22T00:06:55;100571.00;;;18.69;100.00
4836;BME280;66719;51.226;6.902;2023-05-22T00:09:24;100568.66;;;18.63;100.00
4836;BME280;66719;51.226;6.902;2023-05-22T00:11:51;100568.81;;;18.60;100.00
4836;BME280;66719;51.226;6.902;2023-05-22T00:14:18;100566.09;;;18.61;100.00
4836;BME280;66719;51.226;6.902;2023-05-22T00:16:45;100564.38;;;18.60;100.00
4836;BME280;66719;51.226;6.902;2023-05-22T00:19:13;100565.22;;;18.61;100.00
4836;BME280;66719;51.226;6.902;2023-05-22T00:21:42;100559.41;;;18.54;100.00
4836;BME280;66719;51.226;6.902;2023-05-22T00:24:09;100563.84;;;18.54;100.00
4836;BME280;66719;51.226;6.902;2023-05-22T00:26:36;100551.63;;;18.51;100.00
4836;BME280;66719;51.226;6.902;2023-05-22T00:29:02;100557.91;;;18.49;100.00
4836;BME280;66719;51.226;6.902;2023-05-22T00:31:31;100556.13;;;18.49;100.00
4836;BME280;66719;51.226;6.902;2023-05-22T00:33:58;100549.19;;;18.47;100.00
4836;BME280;66719;51.226;6.902;2023-05-22T00:36:24;100550.22;;;18.44;100.00
4836;BME280;66719;51.226;6.902;2023-05-22T00:38:51;100542.38;;;18.43;100.00
4836;BME280;66719;51.226;6.902;2023-05-22T00:41:17;100546.38;;;18.34;100.00
4836;BME280;66719;51.226;6.902;2023-05-22T00:43:44;100548.31;;;18.30;100.00
4836;BME280;66719;51.226;6.902;2023-05-22T00:46:11;100547.00;;;18.22;100.00
4836;BME280;66719;51.226;6.902;2023-05-22T00:48:38;100547.84;;;18.22;100.00
4836;BME280;66719;51.226;6.902;2023-05-22T00:51:05;100549.56;;;18.23;100.00
4836;BME280;66719;51.226;6.902;2023-05-22T00:53:32;100561.91;;;18.24;100.00
4836;BME280;66719;51.226;6.902;2023-05-22T00:55:59;100561.28;;;18.19;100.00
4836;BME280;66719;51.226;6.902;2023-05-22T00:58:26;100565.09;;;18.14;100.00
4836;BME280;66719;51.226;6.902;2023-05-22T01:00:53;100570.03;;;18.04;100.00
4836;BME280;66719;51.226;6.902;2023-05-22T01:03:21;100573.25;;;17.93;100.00
4836;BME280;66719;51.226;6.902;2023-05-22T01:05:53;100576.97;;;17.89;100.00
4836;BME280;66719;51.226;6.902;2023-05-22T01:08:20;100580.81;;;17.84;100.00
4836;BME280;66719;51.226;6.902;2023-05-22T01:10:51;100574.75;;;17.82;100.00
4836;BME280;66719;51.226;6.902;2023-05-22T01:13:35;100574.25;;;17.91;100.00
4836;BME280;66719;51.226;6.902;2023-05-22T01:16:11;100573.16;;;17.95;100.00
4836;BME280;66719;51.226;6.902;2023-05-22T01:24:34;100563.50;;;17.94;100.00
4836;BME280;66719;51.226;6.902;2023-05-22T01:29:45;100567.41;;;17.87;100.00
4836;BME280;66719;51.226;6.902;2023-05-22T01:32:16;100563.81;;;17.88;100.00
4836;BME280;66719;51.226;6.902;2023-05-22T01:34:46;100567.41;;;17.87;100.00
4836;BME280;66719;51.226;6.902;2023-05-22T01:37:13;100564.13;;;17.82;100.00
4836;BME280;66719;51.226;6.902;2023-05-22T01:39:41;100559.31;;;17.72;100.00
4836;BME280;66719;51.226;6.902;2023-05-22T01:42:16;100553.34;;;17.67;100.00
4836;BME280;66719;51.226;6.902;2023-05-22T01:44:43;100563.81;;;17.70;100.00
4836;BME280;66719;51.226;6.902;2023-05-22T01:47:10;100560.22;;;17.71;100.00
4836;BME280;66719;51.226;6.902;2023-05-22T01:49:36;100550.56;;;17.70;100.00
4836;BME280;66719;51.226;6.902;2023-05-22T01:52:20;100550.56;;;17.70;100.00
4836;BME280;66719;51.226;6.902;2023-05-22T01:54:54;100549.72;;;17.70;100.00
4836;BME280;66719;51.226;6.902;2023-05-22T01:57:30;100540.97;;;17.68;100.00
4836;BME280;66719;51.226;6.902;2023-05-22T02:00:06;100538.41;;;17.66;100.00
4836;BME280;66719;51.226;6.902;2023-05-22T02:02:37;100541.97;;;17.65;100.00
4836;BME280;66719;51.226;6.902;2023-05-22T02:05:05;100531.53;;;17.62;100.00
4836;BME280;66719;51.226;6.902;2023-05-22T02:07:36;100530.66;;;17.62;100.00
4836;BME280;66719;51.226;6.902;2023-05-22T02:10:04;100533.66;;;17.56;100.00
4836;BME280;66719;51.226;6.902;2023-05-22T02:12:32;100534.72;;;17.51;100.00
4836;BME280;66719;51.226;6.902;2023-05-22T02:14:59;100547.19;;;17.49;100.00
4836;BME280;66719;51.226;6.902;2023-05-22T02:17:26;100534.97;;;17.47;100.00
4836;BME280;66719;51.226;6.902;2023-05-22T02:19:53;100548.66;;;17.38;100.00
4836;BME280;66719;51.226;6.902;2023-05-22T02:22:19;100543.88;;;17.27;100.00
4836;BME280;66719;51.226;6.902;2023-05-22T02:24:47;100541.41;;;17.24;100.00
4836;BME280;66719;51.226;6.902;2023-05-22T02:27:14;100543.56;;;17.16;100.00
4836;BME280;66719;51.226;6.902;2023-05-22T02:29:40;100538.13;;;17.00;100.00
4836;BME280;66719;51.226;6.902;2023-05-22T02:32:07;100532.00;;;17.00;100.00
4836;BME280;66719;51.226;6.902;2023-05-22T02:34:33;100534.44;;;17.04;100.00
4836;BME280;66719;51.226;6.902;2023-05-22T02:37:00;100531.78;;;17.04;100.00
4836;BME280;66719;51.226;6.902;2023-05-22T02:39:29;100532.72;;;17.03;100.00
4836;BME280;66719;51.226;6.902;2023-05-22T02:41:56;100537.22;;;17.01;100.00
4836;BME280;66719;51.226;6.902;2023-05-22T02:44:22;100531.31;;;16.96;100.00
4836;BME280;66719;51.226;6.902;2023-05-22T02:46:49;100525.84;;;16.99;100.00
4836;BME280;66719;51.226;6.902;2023-05-22T02:49:15;100531.22;;;16.98;100.00
4836;BME280;66719;51.226;6.902;2023-05-22T02:51:42;100535.56;;;16.99;100.00
4836;BME280;66719;51.226;6.902;2023-05-22T02:54:14;100528.41;;;17.01;100.00
4836;BME280;66719;51.226;6.902;2023-05-22T02:56:41;100519.63;;;17.00;100.00
4836;BME280;66719;51.226;6.902;2023-05-22T02:59:08;100518.56;;;17.04;100.00
4836;BME280;66719;51.226;6.902;2023-05-22T03:01:35;100524.13;;;16.98;100.00
4836;BME280;66719;51.226;6.902;2023-05-22T03:04:04;100521.78;;;16.92;100.00
4836;BME280;66719;51.226;6.902;2023-05-22T03:06:32;100522.03;;;16.87;100.00
4836;BME280;66719;51.226;6.902;2023-05-22T03:09:00;100516.81;;;16.86;100.00
4836;BME280;66719;51.226;6.902;2023-05-22T03:11:32;100514.09;;;16.87;100.00
4836;BME280;66719;51.226;6.902;2023-05-22T03:13:58;100514.16;;;16.86;100.00
4836;BME280;66719;51.226;6.902;2023-05-22T03:16:25;100521.38;;;16.82;100.00
4836;BME280;66719;51.226;6.902;2023-05-22T03:19:15;100527.66;;;16.80;100.00
4836;BME280;66719;51.226;6.902;2023-05-22T03:21:42;100518.53;;;16.87;100.00
4836;BME280;66719;51.226;6.902;2023-05-22T03:24:11;100521.78;;;16.92;100.00
4836;BME280;66719;51.226;6.902;2023-05-22T03:26:40;100519.00;;;16.95;100.00
4836;BME280;66719;51.226;6.902;2023-05-22T03:29:07;100527.00;;;16.93;100.00
4836;BME280;66719;51.226;6.902;2023-05-22T03:31:34;100517.31;;;16.94;100.00
4836;BME280;66719;51.226;6.902;2023-05-22T03:34:01;100524.50;;;16.90;100.00
4836;BME280;66719;51.226;6.902;2023-05-22T03:36:28;100528.72;;;16.76;100.00
4836;BME280;66719;51.226;6.902;2023-05-22T03:38:57;100522.91;;;16.69;100.00
4836;BME280;66719;51.226;6.902;2023-05-22T03:41:24;100517.94;;;16.61;100.00
4836;BME280;66719;51.226;6.902;2023-05-22T03:43:51;100522.13;;;16.65;100.00
4836;BME280;66719;51.226;6.902;2023-05-22T03:46:17;100521.44;;;16.62;100.00
4836;BME280;66719;51.226;6.902;2023-05-22T03:48:44;100518.91;;;16.59;100.00
4836;BME280;66719;51.226;6.902;2023-05-22T03:51:10;100520.41;;;16.64;100.00
4836;BME280;66719;51.226;6.902;2023-05-22T03:53:37;100522.13;;;16.65;100.00
4836;BME280;66719;51.226;6.902;2023-05-22T03:56:03;100522.44;;;16.59;100.00
4836;BME280;66719;51.226;6.902;2023-05-22T03:58:30;100525.19;;;16.56;100.00
4836;BME280;66719;51.226;6.902;2023-05-22T04:00:57;100533.00;;;16.59;100.00
4836;BME280;66719;51.226;6.902;2023-05-22T04:03:23;100528.50;;;16.61;100.00
4836;BME280;66719;51.226;6.902;2023-05-22T04:05:50;100526.72;;;16.62;100.00
4836;BME280;66719;51.226;6.902;2023-05-22T04:08:17;100525.63;;;16.66;100.00
4836;BME280;66719;51.226;6.902;2023-05-22T04:10:44;100528.19;;;16.67;100.00
4836;BME280;66719;51.226;6.902;2023-05-22T04:13:12;100530.84;;;16.67;100.00
4836;BME280;66719;51.226;6.902;2023-05-22T04:15:39;100534.31;;;16.70;100.00
4836;BME280;66719;51.226;6.902;2023-05-22T04:18:12;100534.31;;;16.70;100.00
4836;BME280;66719;51.226;6.902;2023-05-22T04:20:39;100541.31;;;16.71;100.00
4836;BME280;66719;51.226;6.902;2023-05-22T04:23:06;100533.56;;;16.66;100.00
4836;BME280;66719;51.226;6.902;2023-05-22T04:25:33;100535.00;;;16.54;100.00
4836;BME280;66719;51.226;6.902;2023-05-22T04:27:59;100538.66;;;16.52;100.00
4836;BME280;66719;51.226;6.902;2023-05-22T04:30:30;100541.16;;;16.55;100.00
4836;BME280;66719;51.226;6.902;2023-05-22T04:32:59;100542.00;;;16.55;100.00
4836;BME280;66719;51.226;6.902;2023-05-22T04:35:27;100550.00;;;16.54;100.00
4836;BME280;66719;51.226;6.902;2023-05-22T04:37:58;100554.00;;;16.44;100.00
4836;BME280;66719;51.226;6.902;2023-05-22T04:40:28;100549.69;;;16.41;100.00
4836;BME280;66719;51.226;6.902;2023-05-22T04:42:55;100550.28;;;16.48;100.00
4836;BME280;66719;51.226;6.902;2023-05-22T04:45:28;100554.97;;;16.41;100.00
4836;BME280;66719;51.226;6.902;2023-05-22T04:47:57;100554.28;;;16.37;100.00
4836;BME280;66719;51.226;6.902;2023-05-22T04:50:25;100551.56;;;16.39;100.00
4836;BME280;66719;51.226;6.902;2023-05-22T04:52:51;100551.28;;;16.45;100.00
4836;BME280;66719;51.226;6.902;2023-05-22T04:55:18;100551.22;;;16.47;100.00
4836;BME280;66719;51.226;6.902;2023-05-22T04:57:45;100547.13;;;16.39;100.00
4836;BME280;66719;51.226;6.902;2023-05-22T05:00:13;100542.69;;;16.40;100.00
4836;BME280;66719;51.226;6.902;2023-05-22T05:02:42;100540.78;;;16.44;100.00
4836;BME280;66719;51.226;6.902;2023-05-22T05:05:09;100542.28;;;16.49;100.00
4836;BME280;66719;51.226;6.902;2023-05-22T05:07:39;100547.28;;;16.55;100.00
4836;BME280;66719;51.226;6.902;2023-05-22T05:10:06;100540.78;;;16.62;100.00
4836;BME280;66719;51.226;6.902;2023-05-22T05:12:33;100549.34;;;16.67;100.00
4836;BME280;66719;51.226;6.902;2023-05-22T05:15:00;100544.06;;;16.67;100.00
4836;BME280;66719;51.226;6.902;2023-05-22T05:17:27;100545.69;;;16.72;100.00
4836;BME280;66719;51.226;6.902;2023-05-22T05:19:54;100544.53;;;16.77;100.00
4836;BME280;66719;51.226;6.902;2023-05-22T05:22:20;100546.03;;;16.83;100.00
4836;BME280;66719;51.226;6.902;2023-05-22T05:24:47;100554.63;;;16.88;100.00
4836;BME280;66719;51.226;6.902;2023-05-22T05:27:13;100548.47;;;16.87;100.00
4836;BME280;66719;51.226;6.902;2023-05-22T05:29:40;100557.25;;;16.88;100.00
4836;BME280;66719;51.226;6.902;2023-05-22T05:32:07;100552.03;;;16.86;100.00
4836;BME280;66719;51.226;6.902;2023-05-22T05:34:35;100555.63;;;16.85;100.00
4836;BME280;66719;51.226;6.902;2023-05-22T05:37:01;100554.47;;;16.91;100.00
4836;BME280;66719;51.226;6.902;2023-05-22T05:39:28;100548.31;;;16.90;100.00
4836;BME280;66719;51.226;6.902;2023-05-22T05:41:55;100554.34;;;16.94;100.00
4836;BME280;66719;51.226;6.902;2023-05-22T05:44:21;100566.66;;;16.93;100.00
4836;BME280;66719;51.226;6.902;2023-05-22T05:46:48;100559.63;;;16.94;100.00
4836;BME280;66719;51.226;6.902;2023-05-22T05:49:14;100563.03;;;16.96;100.00
4836;BME280;66719;51.226;6.902;2023-05-22T05:51:41;100563.97;;;16.95;100.00
4836;BME280;66719;51.226;6.902;2023-05-22T05:54:07;100563.81;;;16.98;100.00
4836;BME280;66719;51.226;6.902;2023-05-22T05:56:34;100569.88;;;17.00;100.00
4836;BME280;66719;51.226;6.902;2023-05-22T05:59:01;100563.53;;;17.04;100.00
4836;BME280;66719;51.226;6.902;2023-05-22T06:01:28;100567.75;;;17.08;100.00
4836;BME280;66719;51.226;6.902;2023-05-22T06:03:58;100567.81;;;17.07;100.00
4836;BME280;66719;51.226;6.902;2023-05-22T06:06:31;100569.59;;;17.06;100.00
4836;BME280;66719;51.226;6.902;2023-05-22T06:09:02;100574.63;;;17.12;100.00
4836;BME280;66719;51.226;6.902;2023-05-22T06:11:32;100574.53;;;17.14;100.00
4836;BME280;66719;51.226;6.902;2023-05-22T06:13:59;100583.25;;;17.16;100.00
4836;BME280;66719;51.226;6.902;2023-05-22T06:16:28;100576.94;;;17.18;100.00
4836;BME280;66719;51.226;6.902;2023-05-22T06:18:57;100581.94;;;17.24;100.00
4836;BME280;66719;51.226;6.902;2023-05-22T06:21:24;100584.44;;;17.28;100.00
4836;BME280;66719;51.226;6.902;2023-05-22T06:23:50;100587.81;;;17.31;100.00
4836;BME280;66719;51.226;6.902;2023-05-22T06:26:17;100588.75;;;17.30;100.00
4836;BME280;66719;51.226;6.902;2023-05-22T06:28:44;100590.47;;;17.31;100.00
4836;BME280;66719;51.226;6.902;2023-05-22T06:31:21;100589.44;;;17.34;100.00
4836;BME280;66719;51.226;6.902;2023-05-22T06:33:48;100586.78;;;17.34;100.00
4836;BME280;66719;51.226;6.902;2023-05-22T06:36:15;100592.00;;;17.35;100.00
4836;BME280;66719;51.226;6.902;2023-05-22T06:38:42;100591.03;;;17.38;100.00
4836;BME280;66719;51.226;6.902;2023-05-22T06:41:11;100594.53;;;17.38;100.00
4836;BME280;66719;51.226;6.902;2023-05-22T06:43:37;100590.00;;;17.40;100.00
4836;BME280;66719;51.226;6.902;2023-05-22T06:46:04;100597.78;;;17.43;100.00
4836;BME280;66719;51.226;6.902;2023-05-22T06:48:33;100603.72;;;17.48;100.00
4836;BME280;66719;51.226;6.902;2023-05-22T06:51:00;100599.13;;;17.52;100.00
4836;BME280;66719;51.226;6.902;2023-05-22T06:53:27;100604.13;;;17.58;100.00
4836;BME280;66719;51.226;6.902;2023-05-22T06:55:54;100597.44;;;17.68;100.00
4836;BME280;66719;51.226;6.902;2023-05-22T06:58:21;100610.41;;;17.74;100.00
4836;BME280;66719;51.226;6.902;2023-05-22T07:00:48;100611.81;;;17.82;100.00
4836;BME280;66719;51.226;6.902;2023-05-22T07:03:14;100612.03;;;17.77;100.00
4836;BME280;66719;51.226;6.902;2023-05-22T07:05:41;100612.13;;;17.75;100.00
4836;BME280;66719;51.226;6.902;2023-05-22T07:08:08;100617.25;;;17.78;100.00
4836;BME280;66719;51.226;6.902;2023-05-22T07:10:35;100613.38;;;17.86;100.00
4836;BME280;66719;51.226;6.902;2023-05-22T07:13:02;100622.09;;;17.88;100.00
4836;BME280;66719;51.226;6.902;2023-05-22T07:15:29;100617.44;;;17.93;100.00
4836;BME280;66719;51.226;6.902;2023-05-22T07:17:55;100623.81;;;17.89;100.00
4836;BME280;66719;51.226;6.902;2023-05-22T07:20:22;100621.97;;;17.91;100.00
4836;BME280;66719;51.226;6.902;2023-05-22T07:22:51;100623.66;;;17.92;100.00
4836;BME280;66719;51.226;6.902;2023-05-22T07:25:17;100623.97;;;17.86;100.00
4836;BME280;66719;51.226;6.902;2023-05-22T07:27:44;100621.88;;;17.92;100.00
4836;BME280;66719;51.226;6.902;2023-05-22T07:30:11;100630.84;;;17.90;100.00
4836;BME280;66719;51.226;6.902;2023-05-22T07:32:38;100634.25;;;17.92;100.00
4836;BME280;66719;51.226;6.902;2023-05-22T07:35:04;100628.63;;;17.98;100.00
4836;BME280;66719;51.226;6.902;2023-05-22T07:37:32;100631.91;;;18.03;100.00
4836;BME280;66719;51.226;6.902;2023-05-22T07:39:59;100626.91;;;17.97;100.00
4836;BME280;66719;51.226;6.902;2023-05-22T07:42:26;100631.63;;;17.92;100.00
4836;BME280;66719;51.226;6.902;2023-05-22T07:44:53;100634.88;;;17.97;100.00
4836;BME280;66719;51.226;6.902;2023-05-22T07:47:19;100630.28;;;18.00;100.00
4836;BME280;66719;51.226;6.902;2023-05-22T07:49:46;100638.25;;;18.00;100.00
4836;BME280;66719;51.226;6.902;2023-05-22T07:52:12;100641.09;;;17.96;100.00
4836;BME280;66719;51.226;6.902;2023-05-22T07:54:39;100644.22;;;18.04;100.00
4836;BME280;66719;51.226;6.902;2023-05-22T07:57:09;100652.94;;;17.89;100.00
4836;BME280;66719;51.226;6.902;2023-05-22T07:59:37;100645.16;;;17.86;100.00
4836;BME280;66719;51.226;6.902;2023-05-22T08:02:04;100647.03;;;17.84;100.00
4836;BME280;66719;51.226;6.902;2023-05-22T08:04:31;100646.88;;;17.87;100.00
4836;BME280;66719;51.226;6.902;2023-05-22T08:06:57;100649.44;;;17.88;100.00
4836;BME280;66719;51.226;6.902;2023-05-22T08:09:24;100653.78;;;17.89;100.00
4836;BME280;66719;51.226;6.902;2023-05-22T08:11:51;100662.56;;;17.91;100.00
4836;BME280;66719;51.226;6.902;2023-05-22T08:14:17;100662.63;;;17.90;100.00
4836;BME280;66719;51.226;6.902;2023-05-22T08:16:44;100665.19;;;17.91;100.00
4836;BME280;66719;51.226;6.902;2023-05-22T08:19:10;100657.94;;;17.95;100.00
4836;BME280;66719;51.226;6.902;2023-05-22T08:21:37;100666.84;;;17.94;100.00
4836;BME280;66719;51.226;6.902;2023-05-22T08:24:06;100662.47;;;17.93;100.00
4836;BME280;66719;51.226;6.902;2023-05-22T08:26:33;100658.50;;;17.84;100.00
4836;BME280;66719;51.226;6.902;2023-05-22T08:28:59;100659.03;;;17.91;100.00
4836;BME280;66719;51.226;6.902;2023-05-22T08:31:26;100659.03;;;17.91;100.00
4836;BME280;66719;51.226;6.902;2023-05-22T08:33:56;100665.41;;;17.87;100.00
4836;BME280;66719;51.226;6.902;2023-05-22T08:36:29;100663.88;;;17.83;100.00
4836;BME280;66719;51.226;6.902;2023-05-22T08:38:56;100672.59;;;17.85;100.00
4836;BME280;66719;51.226;6.902;2023-05-22T08:41:23;100666.03;;;17.74;100.00
4836;BME280;66719;51.226;6.902;2023-05-22T08:43:50;100676.09;;;17.85;100.00
4836;BME280;66719;51.226;6.902;2023-05-22T08:46:17;100678.53;;;17.90;100.00
4836;BME280;66719;51.226;6.902;2023-05-22T08:48:45;100677.66;;;17.89;100.00
4836;BME280;66719;51.226;6.902;2023-05-22T08:51:15;100673.94;;;17.93;100.00
4836;BME280;66719;51.226;6.902;2023-05-22T08:53:44;100679.44;;;17.89;100.00
4836;BME280;66719;51.226;6.902;2023-05-22T08:56:11;100675.44;;;17.80;100.00
4836;BME280;66719;51.226;6.902;2023-05-22T08:58:38;100673.59;;;17.82;100.00
4836;BME280;66719;51.226;6.902;2023-05-22T09:01:06;100675.06;;;17.88;100.00
4836;BME280;66719;51.226;6.902;2023-05-22T09:03:35;100679.75;;;17.83;100.00
4836;BME280;66719;51.226;6.902;2023-05-22T09:06:02;100676.56;;;17.93;100.00
4836;BME280;66719;51.226;6.902;2023-05-22T09:08:29;100686.16;;;17.96;100.00
4836;BME280;66719;51.226;6.902;2023-05-22T09:10:55;100685.53;;;17.91;100.00
4836;BME280;66719;51.226;6.902;2023-05-22T09:13:27;100688.97;;;17.93;100.00
4836;BME280;66719;51.226;6.902;2023-05-22T09:15:58;100685.16;;;17.98;100.00
4836;BME280;66719;51.226;6.902;2023-05-22T09:18:26;100686.50;;;18.07;100.00
4836;BME280;66719;51.226;6.902;2023-05-22T09:20:58;100695.13;;;18.11;100.00
4836;BME280;66719;51.226;6.902;2023-05-22T09:23:26;100696.94;;;18.10;100.00
4836;BME280;66719;51.226;6.902;2023-05-22T09:25:57;100693.25;;;18.13;100.00
4836;BME280;66719;51.226;6.902;2023-05-22T09:28:24;100693.34;;;18.11;100.00
4836;BME280;66719;51.226;6.902;2023-05-22T09:30:52;100697.78;;;18.11;100.00
4836;BME280;66719;51.226;6.902;2023-05-22T09:33:21;100693.63;;;18.05;100.00
4836;BME280;66719;51.226;6.902;2023-05-22T09:35:52;100690.22;;;18.03;100.00
4836;BME280;66719;51.226;6.902;2023-05-22T09:38:26;100694.75;;;18.18;100.00
4836;BME280;66719;51.226;6.902;2023-05-22T09:40:53;100692.56;;;18.26;100.00
4836;BME280;66719;51.226;6.902;2023-05-22T09:43:22;100697.25;;;18.21;100.00
4836;BME280;66719;51.226;6.902;2023-05-22T09:45:56;100692.25;;;18.32;100.00
4836;BME280;66719;51.226;6.902;2023-05-22T09:48:26;100691.09;;;18.38;100.00
4836;BME280;66719;51.226;6.902;2023-05-22T09:50:53;100681.03;;;18.45;100.00
4836;BME280;66719;51.226;6.902;2023-05-22T09:53:25;100688.81;;;18.48;100.00
4836;BME280;66719;51.226;6.902;2023-05-22T09:55:55;100688.50;;;18.54;100.00
4836;BME280;66719;51.226;6.902;2023-05-22T09:58:23;100680.38;;;18.57;100.00
4836;BME280;66719;51.226;6.902;2023-05-22T10:00:51;100686.44;;;18.59;100.00
4836;BME280;66719;51.226;6.902;2023-05-22T10:03:25;100678.22;;;18.65;100.00
4836;BME280;66719;51.226;6.902;2023-05-22T10:05:53;100680.47;;;18.73;100.00
4836;BME280;66719;51.226;6.902;2023-05-22T10:08:24;100680.63;;;18.70;100.00
4836;BME280;66719;51.226;6.902;2023-05-22T10:10:51;100675.47;;;18.67;100.00
4836;BME280;66719;51.226;6.902;2023-05-22T10:13:19;100696.16;;;18.60;100.00
4836;BME280;66719;51.226;6.902;2023-05-22T10:15:47;100688.31;;;18.74;100.00
4836;BME280;66719;51.226;6.902;2023-05-22T10:18:14;100691.16;;;18.71;100.00
4836;BME280;66719;51.226;6.902;2023-05-22T10:20:42;100690.53;;;18.66;100.00
4836;BME280;66719;51.226;6.902;2023-05-22T10:23:09;100696.91;;;18.79;100.00
4836;BME280;66719;51.226;6.902;2023-05-22T10:25:37;100693.00;;;18.86;100.00
4836;BME280;66719;51.226;6.902;2023-05-22T10:28:04;100694.31;;;18.95;100.00
4836;BME280;66719;51.226;6.902;2023-05-22T10:30:40;100696.25;;;18.91;100.00
4836;BME280;66719;51.226;6.902;2023-05-22T10:33:20;100696.59;;;19.01;100.00
4836;BME280;66719;51.226;6.902;2023-05-22T10:36:06;100689.78;;;18.97;100.00
4836;BME280;66719;51.226;6.902;2023-05-22T10:41:16;100683.28;;;19.03;100.00
4836;BME280;66719;51.226;6.902;2023-05-22T10:43:43;100686.44;;;19.09;100.00
4836;BME280;66719;51.226;6.902;2023-05-22T10:46:13;100685.69;;;19.23;100.00
4836;BME280;66719;51.226;6.902;2023-05-22T10:48:43;100695.63;;;19.35;100.00
4836;BME280;66719;51.226;6.902;2023-05-22T10:51:17;100689.44;;;19.19;100.00
4836;BME280;66719;51.226;6.902;2023-05-22T10:53:50;100678.31;;;19.28;100.00
4836;BME280;66719;51.226;6.902;2023-05-22T10:56:18;100680.03;;;19.45;100.00
4836;BME280;66719;51.226;6.902;2023-05-22T10:58:59;100692.03;;;19.52;100.00
4836;BME280;66719;51.226;6.902;2023-05-22T11:01:30;100686.13;;;19.47;100.00
4836;BME280;66719;51.226;6.902;2023-05-22T11:06:39;100681.97;;;19.10;100.00
4836;BME280;66719;51.226;6.902;2023-05-22T11:09:28;100677.91;;;19.20;100.00
4836;BME280;66719;51.226;6.902;2023-05-22T11:22:40;100675.25;;;19.20;100.00
4836;BME280;66719;51.226;6.902;2023-05-22T11:25:14;100667.25;;;19.36;100.00
4836;BME280;66719;51.226;6.902;2023-05-22T11:27:42;100666.69;;;19.46;100.00
4836;BME280;66719;51.226;6.902;2023-05-22T11:30:09;100664.69;;;19.50;100.00
4836;BME280;66719;51.226;6.902;2023-05-22T11:32:38;100663.25;;;19.60;100.00
4836;BME280;66719;51.226;6.902;2023-05-22T11:35:05;100668.75;;;19.73;100.00
4836;BME280;66719;51.226;6.902;2023-05-22T11:37:37;100664.72;;;19.66;100.00
4836;BME280;66719;51.226;6.902;2023-05-22T11:40:05;100672.69;;;19.66;100.00
4836;BME280;66719;51.226;6.902;2023-05-22T11:42:32;100665.06;;;19.60;100.00
4836;BME280;66719;51.226;6.902;2023-05-22T11:44:59;100660.94;;;19.70;100.00
4836;BME280;66719;51.226;6.902;2023-05-22T11:47:26;100661.00;;;19.84;100.00
4836;BME280;66719;51.226;6.902;2023-05-22T11:49:58;100655.25;;;19.92;100.00
4836;BME280;66719;51.226;6.902;2023-05-22T11:52:32;100650.81;;;20.07;100.00
4836;BME280;66719;51.226;6.902;2023-05-22T11:54:58;100657.41;;;20.29;100.00
4836;BME280;66719;51.226;6.902;2023-05-22T11:57:25;100650.91;;;20.49;100.00
4836;BME280;66719;51.226;6.902;2023-05-22T11:59:52;100652.28;;;20.85;100.00
4836;BME280;66719;51.226;6.902;2023-05-22T12:02:19;100643.91;;;21.05;100.00
4836;BME280;66719;51.226;6.902;2023-05-22T12:04:46;100641.38;;;21.16;100.00
4836;BME280;66719;51.226;6.902;2023-05-22T12:07:13;100648.97;;;21.37;100.00
4836;BME280;66719;51.226;6.902;2023-05-22T12:09:41;100651.59;;;21.51;100.00
4836;BME280;66719;51.226;6.902;2023-05-22T12:12:08;100649.69;;;21.53;100.00
4836;BME280;66719;51.226;6.902;2023-05-22T12:14:37;100641.00;;;21.91;100.00
4836;BME280;66719;51.226;6.902;2023-05-22T12:17:03;100637.22;;;22.08;100.00
4836;BME280;66719;51.226;6.902;2023-05-22T12:19:30;100630.41;;;22.16;100.00
4836;BME280;66719;51.226;6.902;2023-05-22T12:21:58;100635.19;;;22.49;100.00
4836;BME280;66719;51.226;6.902;2023-05-22T12:24:24;100628.03;;;22.50;100.00
4836;BME280;66719;51.226;6.902;2023-05-22T12:26:52;100632.31;;;22.78;100.00
4836;BME280;66719;51.226;6.902;2023-05-22T12:29:22;100629.66;;;22.78;100.00
4836;BME280;66719;51.226;6.902;2023-05-22T12:31:49;100623.09;;;22.82;100.00
4836;BME280;66719;51.226;6.902;2023-05-22T12:34:16;100617.16;;;22.66;100.00
4836;BME280;66719;51.226;6.902;2023-05-22T12:36:45;100622.25;;;22.81;100.00
4836;BME280;66719;51.226;6.902;2023-05-22T12:39:16;100624.09;;;22.94;100.00
4836;BME280;66719;51.226;6.902;2023-05-22T12:41:43;100628.91;;;23.25;100.00
4836;BME280;66719;51.226;6.902;2023-05-22T12:44:10;100623.41;;;23.39;100.00
4836;BME280;66719;51.226;6.902;2023-05-22T12:46:37;100618.97;;;23.64;100.00
4836;BME280;66719;51.226;6.902;2023-05-22T12:49:04;100623.09;;;23.68;100.00
4836;BME280;66719;51.226;6.902;2023-05-22T12:51:31;100621.16;;;23.70;100.00
4836;BME280;66719;51.226;6.902;2023-05-22T12:53:58;100624.50;;;23.00;100.00
4836;BME280;66719;51.226;6.902;2023-05-22T12:56:25;100621.06;;;23.11;100.00
4836;BME280;66719;51.226;6.902;2023-05-22T12:58:52;100615.13;;;23.19;100.00
4836;BME280;66719;51.226;6.902;2023-05-22T13:01:19;100614.38;;;23.53;100.00
4836;BME280;66719;51.226;6.902;2023-05-22T13:03:47;100619.03;;;23.38;100.00
4836;BME280;66719;51.226;6.902;2023-05-22T13:06:13;100620.50;;;23.42;100.00
4836;BME280;66719;51.226;6.902;2023-05-22T13:08:40;100620.44;;;23.68;100.00
4836;BME280;66719;51.226;6.902;2023-05-22T13:11:06;100619.13;;;23.74;100.00
4836;BME280;66719;51.226;6.902;2023-05-22T13:13:33;100622.66;;;23.74;100.00
4836;BME280;66719;51.226;6.902;2023-05-22T13:15:59;100630.16;;;23.69;100.00
4836;BME280;66719;51.226;6.902;2023-05-22T13:18:26;100618.13;;;23.63;100.00
4836;BME280;66719;51.226;6.902;2023-05-22T13:20:53;100620.81;;;23.99;100.00